createdAt,value
2019-04-20T00:01:05.396Z,18.60
2019-04-20T00:03:38.026Z,18.70
2019-04-20T00:06:06.977Z,18.60
2019-04-20T00:08:39.779Z,18.70
2019-04-20T00:11:14.267Z,18.60
2019-04-20T00:13:47.676Z,18.60
2019-04-20T00:16:10.306Z,18.60
2019-04-20T00:18:47.982Z,18.60
2019-04-20T00:21:22.550Z,18.60
2019-04-20T00:23:53.135Z,18.60
2019-04-20T00:26:56.379Z,18.60
2019-04-20T00:29:17.623Z,18.60
2019-04-20T00:31:43.932Z,18.60
2019-04-20T00:34:11.526Z,18.50
2019-04-20T00:36:32.868Z,18.60
2019-04-20T00:39:06.419Z,18.50
2019-04-20T00:41:40.952Z,18.50
2019-04-20T00:44:12.254Z,18.50
2019-04-20T00:46:49.925Z,18.50
2019-04-20T00:49:22.842Z,18.40
2019-04-20T00:52:07.513Z,18.40
2019-04-20T00:54:11.526Z,18.30
2019-04-20T00:56:41.361Z,18.40
2019-04-20T00:59:25.135Z,18.30
2019-04-20T01:02:02.028Z,18.40
2019-04-20T01:04:30.080Z,18.40
2019-04-20T01:07:13.677Z,18.40
2019-04-20T01:09:43.367Z,18.40
2019-04-20T01:12:18.274Z,18.50
2019-04-20T01:14:51.676Z,18.40
2019-04-20T01:17:14.982Z,18.40
2019-04-20T01:19:44.408Z,18.40
2019-04-20T01:22:18.491Z,18.40
2019-04-20T01:24:46.951Z,18.40
2019-04-20T01:27:29.840Z,18.30
2019-04-20T01:29:51.421Z,18.40
2019-04-20T01:32:27.731Z,18.40
2019-04-20T01:35:01.474Z,18.30
2019-04-20T01:37:32.841Z,18.30
2019-04-20T01:39:55.157Z,18.30
2019-04-20T01:42:23.389Z,18.30
2019-04-20T01:44:55.387Z,18.30
2019-04-20T01:47:32.234Z,18.20
2019-04-20T01:50:03.566Z,18.20
2019-04-20T01:52:34.989Z,18.20
2019-04-20T01:55:22.755Z,18.20
2019-04-20T01:58:00.431Z,18.20
2019-04-20T02:00:29.766Z,18.20
2019-04-20T02:02:59.305Z,18.10
2019-04-20T02:05:30.981Z,18.00
2019-04-20T02:07:59.081Z,17.90
2019-04-20T02:10:39.541Z,17.80
2019-04-20T02:13:02.989Z,17.80
2019-04-20T02:15:38.609Z,17.60
2019-04-20T02:18:16.448Z,17.60
2019-04-20T02:20:51.480Z,17.60
2019-04-20T02:23:17.306Z,17.60
2019-04-20T02:25:35.698Z,17.50
2019-04-20T02:28:22.922Z,17.40
2019-04-20T02:31:20.749Z,17.40
2019-04-20T02:41:44.831Z,17.10
2019-04-20T02:46:44.743Z,16.80
2019-04-20T02:49:23.134Z,16.80
2019-04-20T02:51:41.053Z,16.80
2019-04-20T02:54:16.599Z,16.80
2019-04-20T02:56:47.662Z,16.80
2019-04-20T02:59:44.699Z,16.80
2019-04-20T03:01:36.005Z,16.70
2019-04-20T03:03:51.071Z,16.70
2019-04-20T03:06:30.689Z,16.80
2019-04-20T03:09:09.040Z,16.70
2019-04-20T03:11:52.772Z,16.70
2019-04-20T03:14:09.592Z,16.50
2019-04-20T03:16:39.755Z,16.60
2019-04-20T03:19:14.140Z,16.60
2019-04-20T03:21:45.472Z,16.50
2019-04-20T03:24:19.347Z,16.50
2019-04-20T03:26:47.978Z,16.60
2019-04-20T03:29:40.817Z,16.50
2019-04-20T03:32:49.947Z,16.50
2019-04-20T03:37:26.702Z,16.50
2019-04-20T03:39:46.636Z,16.40
2019-04-20T03:42:03.660Z,16.40
2019-04-20T03:44:35.733Z,16.30
2019-04-20T03:47:08.857Z,16.20
2019-04-20T03:50:14.696Z,16.10
2019-04-20T03:52:30.056Z,16.10
2019-04-20T03:54:57.390Z,16.00
2019-04-20T03:57:58.345Z,16.00
2019-04-20T04:00:43.401Z,16.00
2019-04-20T04:03:31.766Z,16.00
2019-04-20T04:05:55.974Z,16.00
2019-04-20T04:08:23.529Z,15.90
2019-04-20T04:11:06.695Z,15.80
2019-04-20T04:13:20.800Z,15.70
2019-04-20T04:15:57.531Z,15.60
2019-04-20T04:18:29.837Z,15.50
2019-04-20T04:21:01.434Z,15.50
2019-04-20T04:23:40.912Z,15.30
2019-04-20T04:26:12.629Z,15.40
2019-04-20T04:28:43.393Z,15.40
2019-04-20T04:31:16.300Z,15.40
2019-04-20T04:33:55.970Z,15.40
2019-04-20T04:36:18.284Z,15.30
2019-04-20T04:38:53.512Z,15.30
2019-04-20T04:41:25.623Z,15.20
2019-04-20T04:43:54.195Z,15.20
2019-04-20T04:46:05.822Z,15.30
2019-04-20T04:48:40.668Z,15.30
2019-04-20T04:51:14.843Z,15.20
2019-04-20T04:53:47.979Z,15.20
2019-04-20T04:56:13.191Z,15.20
2019-04-20T04:58:40.525Z,15.30
2019-04-20T05:01:16.617Z,15.20
2019-04-20T05:04:05.234Z,15.30
2019-04-20T05:06:26.350Z,15.20
2019-04-20T05:08:49.819Z,15.20
2019-04-20T05:11:17.195Z,15.30
2019-04-20T05:13:55.963Z,15.30
2019-04-20T05:16:38.537Z,15.30
2019-04-20T05:19:13.514Z,15.40
2019-04-20T05:21:49.246Z,15.30
2019-04-20T05:24:26.863Z,15.30
2019-04-20T05:27:07.109Z,15.30
2019-04-20T05:29:21.464Z,15.30
2019-04-20T05:31:53.717Z,15.40
2019-04-20T05:34:39.024Z,15.60
2019-04-20T05:37:18.880Z,15.60
2019-04-20T05:39:47.395Z,15.80
2019-04-20T05:42:12.974Z,15.80
2019-04-20T05:44:46.061Z,15.90
2019-04-20T05:47:19.555Z,16.00
2019-04-20T05:49:48.500Z,16.10
2019-04-20T05:52:31.712Z,16.30
2019-04-20T05:54:51.400Z,16.30
2019-04-20T05:57:25.076Z,16.40
2019-04-20T05:59:56.185Z,16.30
2019-04-20T06:02:23.288Z,16.40
2019-04-20T06:07:27.062Z,16.50
2019-04-20T06:10:00.180Z,16.60
2019-04-20T06:12:32.033Z,16.80
2019-04-20T06:15:09.461Z,17.00
2019-04-20T06:18:05.165Z,17.10
2019-04-20T06:23:34.635Z,17.50
2019-04-20T06:26:24.619Z,17.70
2019-04-20T06:28:33.773Z,17.90
2019-04-20T06:31:10.644Z,18.00
2019-04-20T06:34:31.940Z,18.20
2019-04-20T06:36:56.058Z,18.30
2019-04-20T06:39:36.411Z,18.50
2019-04-20T06:44:33.198Z,18.70
2019-04-20T06:47:10.365Z,18.90
2019-04-20T06:49:33.255Z,19.00
2019-04-20T06:52:15.521Z,19.20
2019-04-20T06:54:43.192Z,19.40
2019-04-20T06:57:18.478Z,19.50
2019-04-20T07:00:03.780Z,19.60
2019-04-20T07:02:21.872Z,19.70
2019-04-20T07:07:22.717Z,20.10
2019-04-20T07:12:16.790Z,20.40
2019-04-20T07:14:42.679Z,20.50
2019-04-20T07:17:34.941Z,20.70
2019-04-20T07:19:56.438Z,20.80
2019-04-20T07:25:01.185Z,21.00
2019-04-20T07:27:29.778Z,21.10
2019-04-20T07:30:04.049Z,21.10
2019-04-20T07:32:38.653Z,21.20
2019-04-20T07:35:20.088Z,21.20
2019-04-20T07:38:07.003Z,21.40
2019-04-20T07:40:17.568Z,21.50
2019-04-20T07:42:48.004Z,21.70
2019-04-20T07:45:22.922Z,21.80
2019-04-20T07:47:45.941Z,21.80
2019-04-20T07:50:13.298Z,21.90
2019-04-20T07:52:38.631Z,22.00
2019-04-20T07:55:33.670Z,22.10
2019-04-20T07:57:42.916Z,22.10
2019-04-20T08:00:26.242Z,22.20
2019-04-20T08:03:03.607Z,22.20
2019-04-20T08:05:27.838Z,22.40
2019-04-20T08:07:53.864Z,22.40
2019-04-20T08:10:34.339Z,22.30
2019-04-20T08:13:09.427Z,22.30
2019-04-20T08:18:06.511Z,22.50
2019-04-20T08:20:39.346Z,22.50
2019-04-20T08:23:12.971Z,22.60
2019-04-20T08:25:36.132Z,22.70
2019-04-20T08:28:22.699Z,22.80
2019-04-20T08:31:06.314Z,22.90
2019-04-20T08:33:44.758Z,23.00
2019-04-20T08:36:19.987Z,23.10
2019-04-20T08:39:07.126Z,23.10
2019-04-20T08:41:15.570Z,23.10
2019-04-20T08:43:57.145Z,23.20
2019-04-20T08:46:20.445Z,23.30
2019-04-20T08:48:51.963Z,23.30
2019-04-20T08:51:22.637Z,23.40
2019-04-20T08:53:53.008Z,23.50
2019-04-20T08:56:13.992Z,23.60
2019-04-20T08:58:34.155Z,23.70
2019-04-20T09:01:08.319Z,23.80
2019-04-20T09:03:46.208Z,23.90
2019-04-20T09:06:19.347Z,24.00
2019-04-20T09:08:51.451Z,24.20
2019-04-20T09:11:26.081Z,24.20
2019-04-20T09:13:46.177Z,24.20
2019-04-20T09:16:11.057Z,24.30
2019-04-20T09:18:50.321Z,24.30
2019-04-20T09:21:25.329Z,24.50
2019-04-20T09:24:10.744Z,24.50
2019-04-20T09:26:37.121Z,24.50
2019-04-20T09:29:12.754Z,24.60
2019-04-20T09:31:39.309Z,24.70
2019-04-20T09:34:25.999Z,24.70
2019-04-20T09:36:53.725Z,24.90
2019-04-20T09:39:24.629Z,25.00
2019-04-20T09:42:01.541Z,25.00
2019-04-20T09:44:31.405Z,25.30
2019-04-20T09:47:00.434Z,25.30
2019-04-20T09:49:42.557Z,25.40
2019-04-20T09:52:13.408Z,25.50
2019-04-20T09:54:52.863Z,25.30
2019-04-20T09:57:22.094Z,25.40
2019-04-20T09:59:53.654Z,25.50
2019-04-20T10:02:16.853Z,25.60
2019-04-20T10:04:39.783Z,25.60
2019-04-20T10:07:15.768Z,25.70
2019-04-20T10:09:44.553Z,25.90
2019-04-20T10:12:11.579Z,26.00
2019-04-20T10:14:40.922Z,26.00
2019-04-20T10:17:11.761Z,26.00
2019-04-20T10:19:42.787Z,26.00
2019-04-20T10:22:13.076Z,26.00
2019-04-20T10:24:45.311Z,26.30
2019-04-20T10:27:14.618Z,26.30
2019-04-20T10:29:44.186Z,26.40
2019-04-20T10:32:15.822Z,26.50
2019-04-20T10:34:44.587Z,26.50
2019-04-20T10:37:19.652Z,26.60
2019-04-20T10:39:49.119Z,26.50
2019-04-20T10:42:18.639Z,26.70
2019-04-20T10:44:48.296Z,26.80
2019-04-20T10:47:18.889Z,26.60
2019-04-20T10:49:49.307Z,26.50
2019-04-20T10:52:20.007Z,26.50
2019-04-20T10:54:50.380Z,26.70
2019-04-20T10:57:19.935Z,26.70
2019-04-20T10:59:49.798Z,26.90
2019-04-20T11:02:19.586Z,27.10
2019-04-20T11:04:48.935Z,27.10
2019-04-20T11:07:18.704Z,27.30
2019-04-20T11:10:00.627Z,27.10
2019-04-20T11:12:20.114Z,27.10
2019-04-20T11:14:50.213Z,27.10
2019-04-20T11:17:20.446Z,27.10
2019-04-20T11:19:49.906Z,27.20
2019-04-20T11:22:20.084Z,27.10
2019-04-20T11:24:50.228Z,27.10
2019-04-20T11:27:20.452Z,27.20
2019-04-20T11:29:50.024Z,27.40
2019-04-20T11:32:20.216Z,27.20
2019-04-20T11:34:49.678Z,27.30
2019-04-20T11:37:19.336Z,27.40
2019-04-20T11:39:48.854Z,27.60
2019-04-20T11:42:19.467Z,27.70
2019-04-20T11:44:48.941Z,27.60
2019-04-20T11:47:18.905Z,27.60
2019-04-20T11:49:49.363Z,27.20
2019-04-20T11:52:21.405Z,27.60
2019-04-20T11:54:50.509Z,27.50
2019-04-20T11:57:20.015Z,27.60
2019-04-20T11:59:50.776Z,27.60
2019-04-20T12:02:37.166Z,27.80
2019-04-20T12:05:13.147Z,27.90
2019-04-20T12:07:58.683Z,27.90
2019-04-20T12:10:29.707Z,27.90
2019-04-20T12:12:59.672Z,28.10
2019-04-20T12:15:32.208Z,28.10
2019-04-20T12:18:01.872Z,28.10
2019-04-20T12:20:32.470Z,28.10
2019-04-20T12:23:02.232Z,28.10
2019-04-20T12:25:34.520Z,28.00
2019-04-20T12:28:03.953Z,28.20
2019-04-20T12:30:35.507Z,28.20
2019-04-20T12:33:05.754Z,28.20
2019-04-20T12:35:36.177Z,28.20
2019-04-20T12:38:07.197Z,28.30
2019-04-20T12:40:37.973Z,28.40
2019-04-20T12:43:27.759Z,28.60
2019-04-20T12:45:57.963Z,28.50
2019-04-20T12:48:27.475Z,28.70
2019-04-20T12:50:57.484Z,28.60
2019-04-20T12:53:27.007Z,28.10
2019-04-20T12:55:56.802Z,28.40
2019-04-20T12:58:26.391Z,28.30
2019-04-20T13:00:56.382Z,28.40
2019-04-20T13:03:25.920Z,28.20
2019-04-20T13:05:56.128Z,28.30
2019-04-20T13:08:33.642Z,28.40
2019-04-20T13:11:08.749Z,28.50
2019-04-20T13:13:40.882Z,28.40
2019-04-20T13:16:14.647Z,28.40
2019-04-20T13:18:45.646Z,28.40
2019-04-20T13:21:15.075Z,28.20
2019-04-20T13:23:44.976Z,28.20
2019-04-20T13:26:15.673Z,28.20
2019-04-20T13:28:46.787Z,28.20
2019-04-20T13:31:17.667Z,28.30
2019-04-20T13:33:47.642Z,28.30
2019-04-20T13:36:17.325Z,28.00
2019-04-20T13:38:47.735Z,28.00
2019-04-20T13:41:17.859Z,27.90
2019-04-20T13:43:48.103Z,28.00
2019-04-20T13:46:18.712Z,27.80
2019-04-20T13:48:48.928Z,27.70
2019-04-20T13:51:18.945Z,27.90
2019-04-20T13:53:48.432Z,27.90
2019-04-20T13:56:19.731Z,28.00
2019-04-20T13:58:59.797Z,28.00
2019-04-20T14:01:30.884Z,27.90
2019-04-20T14:04:05.346Z,27.90
2019-04-20T14:06:35.337Z,27.90
2019-04-20T14:09:07.843Z,27.70
2019-04-20T14:11:37.375Z,27.60
2019-04-20T14:14:08.236Z,27.50
2019-04-20T14:16:39.020Z,27.50
2019-04-20T14:19:09.308Z,27.70
2019-04-20T14:21:38.903Z,27.60
2019-04-20T14:24:08.885Z,27.60
2019-04-20T14:26:40.325Z,27.60
2019-04-20T14:29:10.391Z,27.60
2019-04-20T14:31:39.946Z,27.50
2019-04-20T14:34:09.305Z,27.60
2019-04-20T14:36:39.085Z,27.60
2019-04-20T14:39:10.072Z,27.50
2019-04-20T14:41:40.365Z,27.60
2019-04-20T14:44:10.223Z,27.50
2019-04-20T14:46:40.083Z,27.60
2019-04-20T14:49:10.441Z,27.60
2019-04-20T14:51:39.830Z,27.40
2019-04-20T14:54:09.670Z,27.60
2019-04-20T14:56:39.305Z,27.50
2019-04-20T14:59:13.524Z,27.60
2019-04-20T15:01:44.987Z,27.40
2019-04-20T15:04:17.963Z,27.40
2019-04-20T15:06:46.574Z,27.30
2019-04-20T15:09:16.934Z,27.10
2019-04-20T15:11:46.697Z,27.10
2019-04-20T15:14:16.520Z,27.20
2019-04-20T15:16:46.755Z,27.10
2019-04-20T15:19:17.917Z,27.10
2019-04-20T15:21:55.753Z,27.10
2019-04-20T15:24:25.231Z,27.00
2019-04-20T15:26:54.737Z,26.80
2019-04-20T15:29:24.296Z,26.80
2019-04-20T15:31:54.301Z,26.80
2019-04-20T15:34:24.772Z,26.80
2019-04-20T15:36:54.200Z,26.90
2019-04-20T15:39:23.533Z,27.00
2019-04-20T15:41:53.631Z,27.10
2019-04-20T15:44:23.247Z,27.00
2019-04-20T15:46:53.155Z,26.90
2019-04-20T15:49:23.722Z,26.80
2019-04-20T15:51:53.376Z,26.80
2019-04-20T15:54:23.245Z,26.80
2019-04-20T15:56:58.820Z,26.80
2019-04-20T15:59:24.353Z,26.70
2019-04-20T16:02:09.011Z,26.60
2019-04-20T16:04:56.485Z,26.60
2019-04-20T16:07:25.953Z,26.60
2019-04-20T16:09:55.298Z,26.60
2019-04-20T16:12:24.795Z,26.60
2019-04-20T16:14:55.246Z,26.50
2019-04-20T16:17:33.772Z,26.50
2019-04-20T16:20:03.935Z,26.50
2019-04-20T16:22:28.924Z,26.40
2019-04-20T16:25:15.490Z,26.50
2019-04-20T16:27:45.625Z,26.30
2019-04-20T16:30:21.155Z,26.40
2019-04-20T16:32:50.519Z,26.20
2019-04-20T16:35:20.335Z,26.20
2019-04-20T16:37:50.765Z,26.20
2019-04-20T16:40:20.247Z,26.20
2019-04-20T16:42:50.205Z,26.20
2019-04-20T16:45:21.231Z,26.20
2019-04-20T16:47:50.721Z,26.10
2019-04-20T16:50:20.138Z,26.00
2019-04-20T16:52:50.671Z,26.00
2019-04-20T16:55:20.702Z,25.90
2019-04-20T16:57:51.715Z,25.90
2019-04-20T17:00:23.136Z,25.80
2019-04-20T17:02:54.217Z,25.70
2019-04-20T17:05:25.122Z,25.70
2019-04-20T17:07:57.367Z,25.70
2019-04-20T17:10:28.731Z,25.70
2019-04-20T17:12:59.792Z,25.50
2019-04-20T17:15:29.673Z,25.50
2019-04-20T17:17:59.373Z,25.40
2019-04-20T17:20:28.901Z,25.40
2019-04-20T17:22:58.532Z,25.30
2019-04-20T17:25:28.142Z,25.30
2019-04-20T17:28:05.249Z,25.30
2019-04-20T17:30:40.001Z,25.20
2019-04-20T17:33:27.959Z,25.20
2019-04-20T17:36:08.467Z,25.10
2019-04-20T17:38:34.680Z,25.00
2019-04-20T17:41:14.644Z,25.00
2019-04-20T17:43:38.915Z,24.90
2019-04-20T17:46:10.114Z,24.80
2019-04-20T17:48:46.820Z,24.70
2019-04-20T17:51:29.191Z,24.80
2019-04-20T17:53:49.141Z,24.60
2019-04-20T17:56:12.161Z,24.50
2019-04-20T17:58:41.632Z,24.50
2019-04-20T18:01:41.357Z,24.40
2019-04-20T18:04:36.113Z,24.20
2019-04-20T18:06:47.929Z,24.10
2019-04-20T18:09:34.542Z,24.00
2019-04-20T18:11:46.404Z,23.90
2019-04-20T18:14:28.313Z,23.70
2019-04-20T18:17:02.268Z,23.60
2019-04-20T18:19:22.846Z,23.50
2019-04-20T18:21:51.661Z,23.30
2019-04-20T18:24:42.351Z,23.30
2019-04-20T18:27:16.143Z,23.10
2019-04-20T18:29:41.025Z,22.90
2019-04-20T18:31:57.655Z,22.90
2019-04-20T18:34:29.264Z,22.70
2019-04-20T18:37:02.161Z,22.50
2019-04-20T18:39:38.688Z,22.50
2019-04-20T18:42:09.978Z,22.30
2019-04-20T18:44:54.646Z,22.20
2019-04-20T18:47:23.838Z,22.20
2019-04-20T18:49:46.600Z,22.10
2019-04-20T18:52:06.143Z,21.80
2019-04-20T18:54:40.863Z,21.80
2019-04-20T18:57:11.168Z,21.70
2019-04-20T18:59:43.804Z,21.70
2019-04-20T19:02:16.217Z,21.60
2019-04-20T19:04:40.087Z,21.60
2019-04-20T19:07:10.016Z,21.60
2019-04-20T19:09:40.984Z,21.60
2019-04-20T19:12:14.519Z,21.60
2019-04-20T19:15:13.467Z,21.60
2019-04-20T19:17:46.666Z,21.60
2019-04-20T19:20:07.487Z,21.60
2019-04-20T19:22:38.491Z,21.60
2019-04-20T19:25:16.974Z,21.50
2019-04-20T19:27:48.456Z,21.50
2019-04-20T19:30:26.309Z,21.40
2019-04-20T19:33:00.772Z,21.30
2019-04-20T19:35:26.048Z,21.40
2019-04-20T19:37:53.816Z,21.40
2019-04-20T19:40:31.110Z,21.40
2019-04-20T19:43:02.463Z,21.50
2019-04-20T19:45:44.004Z,21.40
2019-04-20T19:48:05.716Z,21.40
2019-04-20T19:50:41.011Z,21.30
2019-04-20T19:53:20.003Z,21.30
2019-04-20T19:55:39.123Z,21.30
2019-04-20T19:58:07.187Z,21.20
2019-04-20T20:00:51.383Z,21.30
2019-04-20T20:03:19.730Z,21.30
2019-04-20T20:05:51.892Z,21.20
2019-04-20T20:08:24.477Z,21.20
2019-04-20T20:10:52.648Z,21.20
2019-04-20T20:13:27.401Z,21.20
2019-04-20T20:16:02.359Z,21.10
2019-04-20T20:18:39.348Z,21.10
2019-04-20T20:21:11.056Z,21.10
2019-04-20T20:23:27.884Z,21.10
2019-04-20T20:25:57.462Z,21.00
2019-04-20T20:28:37.153Z,21.00
2019-04-20T20:31:10.648Z,21.00
2019-04-20T20:33:46.673Z,20.90
2019-04-20T20:36:08.825Z,20.90
2019-04-20T20:38:38.940Z,20.90
2019-04-20T20:41:12.728Z,20.80
2019-04-20T20:43:44.725Z,20.80
2019-04-20T20:46:16.219Z,20.80
2019-04-20T20:48:57.110Z,20.80
2019-04-20T20:51:27.920Z,20.70
2019-04-20T20:53:52.233Z,20.70
2019-04-20T20:56:18.508Z,20.70
2019-04-20T20:58:53.879Z,20.80
2019-04-20T21:01:19.604Z,20.70
2019-04-20T21:03:46.068Z,20.70
2019-04-20T21:06:16.821Z,20.70
2019-04-20T21:08:50.022Z,20.70
2019-04-20T21:11:20.432Z,20.70
2019-04-20T21:13:49.216Z,20.70
2019-04-20T21:16:23.850Z,20.70
2019-04-20T21:19:03.879Z,20.70
2019-04-20T21:21:37.113Z,20.60
2019-04-20T21:24:00.383Z,20.70
2019-04-20T21:26:30.460Z,20.60
2019-04-20T21:28:55.576Z,20.60
2019-04-20T21:31:28.983Z,20.60
2019-04-20T21:33:57.289Z,20.40
2019-04-20T21:36:29.974Z,20.50
2019-04-20T21:38:58.139Z,20.50
2019-04-20T21:41:29.109Z,20.50
2019-04-20T21:43:59.961Z,20.60
2019-04-20T21:46:38.912Z,20.50
2019-04-20T21:49:13.863Z,20.50
2019-04-20T21:51:42.511Z,20.50
2019-04-20T21:54:03.812Z,20.60
2019-04-20T21:56:38.349Z,20.50
2019-04-20T21:59:14.243Z,20.50
2019-04-20T22:01:39.709Z,20.50
2019-04-20T22:04:08.307Z,20.40
2019-04-20T22:06:38.243Z,20.50
2019-04-20T22:09:10.898Z,20.40
2019-04-20T22:11:40.327Z,20.40
2019-04-20T22:14:17.280Z,20.40
2019-04-20T22:16:46.098Z,20.30
2019-04-20T22:19:27.494Z,20.40
2019-04-20T22:21:53.381Z,20.40
2019-04-20T22:24:34.263Z,20.40
2019-04-20T22:26:58.922Z,20.30
2019-04-20T22:29:16.421Z,20.30
2019-04-20T22:31:52.328Z,20.30
2019-04-20T22:34:20.820Z,20.20
2019-04-20T22:36:50.082Z,20.20
2019-04-20T22:39:33.242Z,20.20
2019-04-20T22:42:00.162Z,20.20
2019-04-20T22:44:28.339Z,20.10
2019-04-20T22:46:58.362Z,20.10
2019-04-20T22:49:44.303Z,20.10
2019-04-20T22:52:13.229Z,20.10
2019-04-20T22:54:46.670Z,20.00
2019-04-20T22:57:09.396Z,20.00
2019-04-20T22:59:41.872Z,20.00
2019-04-20T23:02:06.139Z,19.80
2019-04-20T23:04:35.052Z,19.90
2019-04-20T23:07:05.024Z,19.90
2019-04-20T23:09:43.785Z,19.80
2019-04-20T23:12:11.316Z,19.70
2019-04-20T23:14:38.268Z,19.80
2019-04-20T23:17:08.268Z,19.70
2019-04-20T23:19:46.602Z,19.70
2019-04-20T23:22:13.518Z,19.50
2019-04-20T23:24:41.486Z,19.60
2019-04-20T23:27:18.171Z,19.70
2019-04-20T23:29:43.579Z,19.70
2019-04-20T23:32:14.551Z,19.60
2019-04-20T23:34:44.748Z,19.60
2019-04-20T23:37:20.125Z,19.50
2019-04-20T23:39:47.723Z,19.50
2019-04-20T23:42:32.610Z,19.40
2019-04-20T23:45:07.397Z,19.40
2019-04-20T23:47:46.445Z,19.40
2019-04-20T23:50:38.265Z,19.50
2019-04-20T23:53:08.366Z,19.50
2019-04-20T23:55:19.095Z,19.40
2019-04-20T23:57:55.893Z,19.30
